Time;durP1;ratioP1;P1;durP2;ratioP2;P2;SDS_P1;SDS_P2;PMS_P1;PMS_P2;Temp;Humidity;BMP_temperature;BMP_pressure;BME280_temperature;BME280_humidity;BME280_pressure;Samples;Min_cycle;Max_cycle;Signal;HPM_P1;HPM_P2
2024/01/21 00:02:55;;;;;;;24.00;9.60;;;;;;;0.54;100.00;101970.91;4844785;58;1140679;-78
2024/01/21 00:08:01;;;;;;;21.90;8.30;;;;;;;0.51;100.00;101969.64;4884433;57;1138803;-79
2024/01/21 00:13:06;;;;;;;21.83;10.30;;;;;;;0.48;100.00;101983.98;4917752;58;1138754;-78
2024/01/21 00:18:12;;;;;;;23.07;10.37;;;;;;;0.45;100.00;101980.14;4917365;58;1140628;-77
2024/01/21 00:23:18;;;;;;;28.53;10.07;;;;;;;0.44;100.00;101982.33;4939688;57;1140819;-80
2024/01/21 00:28:23;;;;;;;22.30;10.30;;;;;;;0.44;100.00;101997.94;4979687;57;1140977;-77
2024/01/21 00:33:29;;;;;;;20.07;10.30;;;;;;;0.44;100.00;102007.05;5002135;56;1140532;-78
2024/01/21 00:38:34;;;;;;;26.63;10.50;;;;;;;0.43;100.00;102002.28;5011786;56;1141224;-80
2024/01/21 00:43:40;;;;;;;19.85;9.88;;;;;;;0.43;100.00;102007.48;4876697;56;1140997;-79
2024/01/21 00:48:45;;;;;;;18.73;9.47;;;;;;;0.40;100.00;102020.97;4864552;57;1138847;-78
2024/01/21 00:53:51;;;;;;;28.73;10.90;;;;;;;0.38;100.00;102013.61;4897775;58;1138896;-76
2024/01/21 00:58:57;;;;;;;27.57;11.20;;;;;;;0.39;100.00;102016.64;4876871;58;1141116;-76
2024/01/21 01:04:02;;;;;;;23.13;10.37;;;;;;;0.42;100.00;102016.61;4900576;57;1140830;-78
2024/01/21 01:09:08;;;;;;;32.53;11.90;;;;;;;0.41;100.00;102028.77;4969595;56;1140837;-75
2024/01/21 01:14:14;;;;;;;25.60;11.57;;;;;;;0.40;100.00;102023.58;4906048;57;1141077;-79
2024/01/21 01:19:19;;;;;;;27.10;11.47;;;;;;;0.38;100.00;102026.63;4920983;58;1140969;-76
2024/01/21 01:24:25;;;;;;;29.10;11.20;;;;;;;0.38;100.00;102027.49;4948199;57;1140837;-77
2024/01/21 01:29:30;;;;;;;19.92;9.40;;;;;;;0.35;100.00;102034.03;4984068;56;1141213;-76
2024/01/21 01:34:36;;;;;;;23.25;9.85;;;;;;;0.32;100.00;102040.12;4998174;56;1138911;-79
2024/01/21 01:39:42;;;;;;;27.68;10.44;;;;;;;0.28;100.00;102035.85;4934086;57;1138819;-77
2024/01/21 01:44:47;;;;;;;24.03;10.60;;;;;;;0.28;100.00;102031.09;4849881;57;1140689;-76
2024/01/21 01:49:55;;;;;;;25.47;11.07;;;;;;;0.28;100.00;102031.09;4822654;59;1141201;-75
2024/01/21 01:55:01;;;;;;;24.50;11.85;;;;;;;0.25;100.00;102030.67;4825653;59;1140898;-79
2024/01/21 02:00:07;;;;;;;22.37;10.33;;;;;;;0.27;100.00;102038.03;4876199;59;1140514;-75
2024/01/21 02:05:15;;;;;;;22.97;10.20;;;;;;;0.25;100.00;102038.48;4916764;58;1140562;-79
2024/01/21 02:10:20;;;;;;;31.30;12.43;;;;;;;0.28;100.00;102044.09;4911773;58;1140790;-78
2024/01/21 02:15:26;;;;;;;26.77;10.63;;;;;;;0.26;100.00;102044.11;4927445;58;1140675;-79
2024/01/21 02:20:33;;;;;;;24.50;11.50;;;;;;;0.27;100.00;102049.73;4909412;58;1141038;-75
2024/01/21 02:25:39;;;;;;;25.80;10.37;;;;;;;0.30;100.00;102048.85;4953582;56;1140774;-77
2024/01/21 02:30:44;;;;;;;27.73;11.00;;;;;;;0.29;100.00;102047.13;4945074;56;1140860;-77
2024/01/21 02:35:50;;;;;;;22.47;9.47;;;;;;;0.29;100.00;102042.78;4896275;58;1140443;-77
2024/01/21 02:40:55;;;;;;;22.93;9.23;;;;;;;0.32;100.00;102050.53;4884867;58;1138542;-79
2024/01/21 02:46:01;;;;;;;22.60;10.17;;;;;;;0.34;100.00;102051.38;4839830;59;1138788;-79
2024/01/21 02:51:10;;;;;;;22.90;10.37;;;;;;;0.35;100.00;102054.41;4844531;59;1140898;-78
2024/01/21 02:56:31;;;;;;;24.73;9.73;;;;;;;0.37;100.00;102055.69;4853647;58;1141014;-77
2024/01/21 03:01:34;;;;;;;19.30;8.83;;;;;;;0.37;100.00;102061.34;4917057;57;1138746;-79
2024/01/21 03:06:45;;;;;;;28.53;10.87;;;;;;;0.35;100.00;102066.12;4806265;56;1138611;-78
2024/01/21 03:11:50;;;;;;;18.60;9.03;;;;;;;0.32;100.00;102063.98;4882704;58;1141075;-77
2024/01/21 03:16:57;;;;;;;24.83;10.30;;;;;;;0.31;100.00;102065.72;4872634;58;1138547;-78
2024/01/21 03:22:02;;;;;;;22.80;11.33;;;;;;;0.29;100.00;102063.59;4909497;58;1140944;-76
2024/01/21 03:27:08;;;;;;;21.43;9.77;;;;;;;0.21;100.00;102058.03;4997491;56;1141303;-76
2024/01/21 03:32:13;;;;;;;22.93;8.90;;;;;;;0.18;100.00;102063.27;4939435;56;1138769;-78
2024/01/21 03:37:19;;;;;;;19.70;9.23;;;;;;;0.11;100.00;102061.62;4897459;58;1138823;-75
2024/01/21 03:42:25;;;;;;;25.03;11.37;;;;;;;0.03;100.00;102088.98;4921311;58;1138834;-79
2024/01/21 03:47:31;;;;;;;24.80;11.07;;;;;;;-0.08;100.00;102083.02;4919374;57;1140923;-78
2024/01/21 03:52:37;;;;;;;18.40;9.88;;;;;;;-0.16;100.00;102082.24;4915961;57;1142884;-79
2024/01/21 03:57:43;;;;;;;25.50;11.50;;;;;;;-0.21;100.00;102074.47;4897376;57;1141112;-78
2024/01/21 04:02:48;;;;;;;27.90;12.07;;;;;;;-0.26;100.00;102072.34;4902448;58;1143058;-77
2024/01/21 04:07:54;;;;;;;29.33;11.17;;;;;;;-0.29;100.00;102067.59;4863543;58;1142950;-78
2024/01/21 04:13:00;;;;;;;27.07;10.37;;;;;;;-0.33;100.00;102067.22;4777609;60;1142932;-76
2024/01/21 04:18:06;;;;;;;31.00;11.77;;;;;;;-0.37;100.00;102070.27;4893756;57;1143060;-76
2024/01/21 04:23:11;;;;;;;32.17;15.87;;;;;;;-0.40;100.00;102066.39;4884079;57;1142815;-75
2024/01/21 04:28:17;;;;;;;32.30;12.70;;;;;;;-0.40;100.00;102067.25;4969156;56;1142862;-75
2024/01/21 04:33:23;;;;;;;22.90;10.57;;;;;;;-0.43;100.00;102069.87;4975276;58;1143042;-78
2024/01/21 04:38:28;;;;;;;30.03;12.60;;;;;;;-0.44;100.00;102060.34;4800121;58;1142839;-78
2024/01/21 04:43:34;;;;;;;25.17;11.93;;;;;;;-0.41;100.00;102062.06;4798115;58;1143177;-76
2024/01/21 04:48:39;;;;;;;25.82;12.35;;;;;;;-0.46;100.00;102067.75;4870584;57;1143028;-78
2024/01/21 04:53:45;;;;;;;27.90;11.37;;;;;;;-0.50;100.00;102064.31;4924263;56;1147871;-75
2024/01/21 04:58:51;;;;;;;23.87;10.57;;;;;;;-0.53;100.00;102072.55;4925444;56;1143355;-78
2024/01/21 05:03:57;;;;;;;30.47;12.67;;;;;;;-0.57;100.00;102066.94;4937155;56;1142859;-77
2024/01/21 05:09:02;;;;;;;21.62;11.05;;;;;;;-0.56;100.00;102058.28;4942459;56;1143387;-77
2024/01/21 05:14:08;;;;;;;33.93;13.93;;;;;;;-0.56;100.00;102060.87;4924238;56;1143019;-79
2024/01/21 05:19:16;;;;;;;42.10;17.40;;;;;;;-0.58;100.00;102065.22;4936370;56;1142901;-75
2024/01/21 05:24:22;;;;;;;28.40;11.97;;;;;;;-0.62;100.00;102071.33;4963147;56;1143129;-78
2024/01/21 05:29:27;;;;;;;36.03;14.53;;;;;;;-0.68;100.00;102070.92;4940244;57;1142920;-75
2024/01/21 05:34:33;;;;;;;35.87;13.43;;;;;;;-0.73;100.00;102075.28;4858800;58;1143154;-76
2024/01/21 05:39:38;;;;;;;26.70;11.97;;;;;;;-0.81;100.00;102069.28;4858580;58;1143112;-78
2024/01/21 05:44:44;;;;;;;23.52;11.18;;;;;;;-0.84;100.00;102077.08;4941248;56;1143383;-76
2024/01/21 05:49:50;;;;;;;34.78;12.80;;;;;;;-0.89;100.00;102064.55;4828127;59;1143063;-74
2024/01/21 05:54:55;;;;;;;29.65;12.78;;;;;;;-0.88;100.00;102075.36;4810194;58;1143085;-77
2024/01/21 06:00:01;;;;;;;29.07;12.87;;;;;;;-0.90;100.00;102077.11;4890363;59;1142993;-74
2024/01/21 06:05:09;;;;;;;33.97;13.23;;;;;;;-0.89;100.00;102083.59;4844526;59;1142829;-76
2024/01/21 06:10:14;;;;;;;23.23;12.57;;;;;;;-0.90;100.00;102090.09;4846118;59;1142892;-76
2024/01/21 06:15:20;;;;;;;26.10;12.03;;;;;;;-0.99;100.00;102094.05;4863372;59;1142925;-77
2024/01/21 06:20:25;;;;;;;28.27;10.80;;;;;;;-1.08;100.00;102093.67;4886270;58;1143129;-76
2024/01/21 06:25:31;;;;;;;22.53;10.47;;;;;;;-1.14;100.00;102091.95;4929904;57;1143296;-76
2024/01/21 06:30:36;;;;;;;25.57;11.57;;;;;;;-1.23;100.00;102097.63;4897593;59;1145674;-79
2024/01/21 06:35:42;;;;;;;26.67;11.20;;;;;;;-1.30;100.00;102101.09;4846436;58;1147839;-77
2024/01/21 06:40:48;;;;;;;21.95;11.10;;;;;;;-1.35;100.00;102098.94;4853809;58;1142968;-79
2024/01/21 06:45:54;;;;;;;41.50;16.77;;;;;;;-1.42;100.00;102096.39;4869531;58;1143288;-77
2024/01/21 06:51:00;;;;;;;39.70;15.73;;;;;;;-1.43;100.00;102091.20;4845183;58;1142884;-77
2024/01/21 06:56:11;;;;;;;36.25;15.70;;;;;;;-1.36;100.00;102090.73;4846075;59;1143036;-75
2024/01/21 07:01:13;;;;;;;30.80;14.67;;;;;;;-1.35;100.00;102095.05;4863260;59;1142941;-78
2024/01/21 07:06:19;;;;;;;36.23;14.55;;;;;;;-1.37;100.00;102093.75;4846701;58;1143182;-76
2024/01/21 07:11:25;;;;;;;24.47;11.93;;;;;;;-1.43;100.00;102092.50;4845196;59;1143351;-76
2024/01/21 07:16:31;;;;;;;24.33;11.30;;;;;;;-1.39;100.00;102092.06;4903708;58;1143304;-78
2024/01/21 07:21:36;;;;;;;24.67;11.30;;;;;;;-1.34;100.00;102096.34;4919258;57;1143285;-78
2024/01/21 07:26:42;;;;;;;25.60;10.82;;;;;;;-1.33;100.00;102099.80;4935524;56;1143133;-75
2024/01/21 07:31:48;;;;;;;28.63;12.10;;;;;;;-1.37;100.00;102101.97;4951767;57;1143576;-76
2024/01/21 07:36:53;;;;;;;28.90;11.57;;;;;;;-1.32;100.00;102092.45;4968159;57;1143068;-78
2024/01/21 07:41:59;;;;;;;24.17;9.83;;;;;;;-1.32;100.00;102092.45;4923811;57;1142827;-76
2024/01/21 07:47:04;;;;;;;39.10;13.97;;;;;;;-1.24;100.00;102099.80;4924775;57;1140696;-76
2024/01/21 07:52:10;;;;;;;62.47;20.63;;;;;;;-1.19;100.00;102102.77;4944302;57;1143140;-76
2024/01/21 07:57:16;;;;;;;20.00;10.82;;;;;;;-1.16;100.00;102098.88;4924227;57;1142736;-76
2024/01/21 08:02:26;;;;;;;41.43;24.50;;;;;;;-1.07;100.00;102099.30;4924950;57;1142774;-75
2024/01/21 08:07:29;;;;;;;29.47;13.57;;;;;;;-0.93;100.00;102100.09;4793815;58;1143123;-76
2024/01/21 08:12:35;;;;;;;28.15;10.65;;;;;;;-0.74;100.00;102095.63;4901589;58;1164162;-76
2024/01/21 08:17:41;;;;;;;56.20;20.68;;;;;;;-0.60;100.00;102092.51;4926448;57;1143068;-76
2024/01/21 08:22:47;;;;;;;116.87;43.03;;;;;;;-0.60;100.00;102099.00;4845319;59;1144549;-77
2024/01/21 08:27:53;;;;;;;39.80;16.60;;;;;;;-0.58;100.00;102094.66;4968243;57;1144896;-75
2024/01/21 08:32:58;;;;;;;43.97;17.87;;;;;;;-0.56;100.00;102096.82;4918821;58;1143245;-78
2024/01/21 08:38:04;;;;;;;18.77;8.10;;;;;;;-0.63;100.00;102087.79;4924651;57;1142846;-78
2024/01/21 08:43:10;;;;;;;45.73;15.67;;;;;;;-0.62;100.00;102087.78;4891116;58;1140921;-79
2024/01/21 08:48:15;;;;;;;22.50;9.77;;;;;;;-0.60;100.00;102090.34;4849066;58;1142887;-80
2024/01/21 08:53:21;;;;;;;55.23;38.03;;;;;;;-0.51;100.00;102082.50;4846994;59;1140763;-80
2024/01/21 08:58:26;;;;;;;42.07;14.37;;;;;;;-0.33;100.00;102086.71;4857311;58;1142848;-76
2024/01/21 09:03:32;;;;;;;70.90;20.83;;;;;;;-0.17;100.00;102089.18;4845874;58;1142971;-79
2024/01/21 09:08:38;;;;;;;103.20;24.67;;;;;;;-0.06;100.00;102100.34;4880237;57;1142914;-75
2024/01/21 09:13:45;;;;;;;97.38;20.92;;;;;;;-0.10;100.00;102092.57;4924332;57;1144892;-78
2024/01/21 09:18:50;;;;;;;73.57;20.40;;;;;;;-0.12;100.00;102085.22;4865518;59;1142971;-79
2024/01/21 09:23:56;;;;;;;101.70;28.37;;;;;;;-0.13;100.00;102089.55;4866337;57;1142999;-78
2024/01/21 09:29:03;;;;;;;64.90;17.20;;;;;;;-0.23;100.00;102084.02;4870145;58;1144948;-76
2024/01/21 09:34:08;;;;;;;22.73;8.83;;;;;;;-0.27;100.00;102071.91;4754259;59;1186159;-77
2024/01/21 09:39:14;;;;;;;229.53;73.90;;;;;;;-0.18;100.00;102067.09;4761694;58;1140524;-76
2024/01/21 09:44:22;;;;;;;55.90;19.80;;;;;;;-0.06;100.00;102083.44;4935616;58;1144766;-80
2024/01/21 09:49:28;;;;;;;17.10;7.10;;;;;;;0.11;100.00;102073.32;4804607;58;1142571;-77
2024/01/21 09:54:34;;;;;;;21.33;7.53;;;;;;;0.17;100.00;102061.09;4970285;58;1138966;-79
2024/01/21 09:59:40;;;;;;;19.97;8.97;;;;;;;0.13;100.00;102064.63;4816256;58;1143261;-76
2024/01/21 10:04:49;;;;;;;25.10;11.10;;;;;;;0.18;100.00;102062.83;4769234;59;1138465;-78
2024/01/21 10:09:57;;;;;;;25.33;10.83;;;;;;;0.27;100.00;102058.84;4942588;57;1140833;-78
2024/01/21 10:15:03;;;;;;;27.33;10.33;;;;;;;0.40;100.00;102051.77;4951283;58;1140699;-76
2024/01/21 10:20:13;;;;;;;21.07;8.70;;;;;;;0.50;100.00;102046.00;4975597;57;1140791;-78
2024/01/21 10:25:21;;;;;;;21.30;9.53;;;;;;;0.60;100.00;102032.88;4960454;56;1178879;-77
2024/01/21 10:30:26;;;;;;;106.20;34.30;;;;;;;0.66;100.00;102031.48;4923266;57;1138718;-78
2024/01/21 10:35:32;;;;;;;48.57;16.50;;;;;;;0.77;100.00;102040.89;4942661;57;1142927;-77
2024/01/21 10:40:48;;;;;;;24.10;9.63;;;;;;;0.85;100.00;102042.97;4927127;57;1140887;-78
2024/01/21 10:45:50;;;;;;;16.27;7.12;;;;;;;0.90;100.00;102025.11;4925304;57;1138637;-77
2024/01/21 10:50:57;;;;;;;19.60;8.83;;;;;;;0.97;100.00;102014.14;4990911;58;1138592;-77
2024/01/21 10:56:04;;;;;;;37.13;11.20;;;;;;;1.01;100.00;102005.41;4918809;57;1240822;-77
2024/01/21 11:01:12;;;;;;;20.10;7.67;;;;;;;1.04;100.00;101994.51;4947701;58;1255956;-77
2024/01/21 11:06:18;;;;;;;75.20;23.20;;;;;;;1.09;100.00;101985.30;4917783;58;1242306;-78
2024/01/21 11:11:24;;;;;;;30.40;10.57;;;;;;;1.08;100.00;102000.95;4843270;58;1255488;-77
2024/01/21 11:16:35;;;;;;;24.63;9.70;;;;;;;1.12;100.00;101992.22;4843153;59;1255081;-78
2024/01/21 11:21:43;;;;;;;23.47;13.50;;;;;;;1.13;100.00;101990.03;4889091;58;1246188;-79
2024/01/21 11:26:49;;;;;;;37.10;12.58;;;;;;;1.15;100.00;101977.41;4938404;57;1248517;-75
2024/01/21 11:32:01;;;;;;;26.63;8.73;;;;;;;1.19;100.00;101975.62;4928018;57;1241862;-76
2024/01/21 11:37:08;;;;;;;24.73;10.10;;;;;;;1.25;100.00;101964.64;4923332;57;1248136;-79
2024/01/21 11:42:14;;;;;;;31.57;10.07;;;;;;;1.34;100.00;101965.81;4933262;57;1254709;-76
2024/01/21 11:47:20;;;;;;;30.27;12.60;;;;;;;1.43;100.00;101968.69;4923398;57;1242120;-76
2024/01/21 11:52:26;;;;;;;29.87;13.40;;;;;;;1.49;100.00;101963.83;4923032;57;1254326;-75
2024/01/21 11:57:32;;;;;;;24.37;10.70;;;;;;;1.54;100.00;101947.64;4940286;58;1140718;-77
2024/01/21 12:02:37;;;;;;;23.77;9.20;;;;;;;1.60;100.00;101942.34;4921804;57;1140937;-75
2024/01/21 12:07:44;;;;;;;23.80;9.97;;;;;;;1.62;100.00;101930.12;4799841;58;1139083;-77
2024/01/21 12:12:49;;;;;;;22.35;10.72;;;;;;;1.61;100.00;101916.23;4960638;57;1138921;-80
2024/01/21 12:18:16;;;;;;;28.75;11.73;;;;;;;1.65;100.00;101911.83;4974618;57;1140789;-76
2024/01/21 12:23:24;;;;;;;30.63;14.00;;;;;;;1.72;100.00;101898.63;4937179;57;1159912;-78
2024/01/21 12:28:29;;;;;;;35.97;13.70;;;;;;;1.77;100.00;101901.16;4983731;56;1140896;-75
2024/01/21 12:33:35;;;;;;;22.13;9.57;;;;;;;1.77;100.00;101867.25;4998287;57;1179155;-78
2024/01/21 12:38:42;;;;;;;46.30;18.77;;;;;;;1.77;100.00;101867.25;4981142;56;1164201;-78
2024/01/21 12:43:52;;;;;;;26.60;11.35;;;;;;;1.76;100.00;101862.92;4959295;56;1171182;-77
2024/01/21 12:48:57;;;;;;;22.25;10.65;;;;;;;1.75;100.00;101865.98;4982269;57;1140669;-79
2024/01/21 12:54:03;;;;;;;35.77;14.53;;;;;;;1.76;100.00;101848.13;4923529;58;1141072;-77
2024/01/21 12:59:10;;;;;;;42.17;17.23;;;;;;;1.79;100.00;101846.36;4947480;57;1141002;-77
2024/01/21 13:04:16;;;;;;;29.80;12.60;;;;;;;1.81;100.00;101844.58;4889855;59;1140914;-80
2024/01/21 13:09:22;;;;;;;32.30;13.23;;;;;;;1.83;100.00;101845.42;4878582;58;1141035;-79
2024/01/21 13:14:30;;;;;;;36.17;15.03;;;;;;;1.86;100.00;101850.55;4883542;58;1140543;-78
2024/01/21 13:19:35;;;;;;;36.93;14.30;;;;;;;1.89;100.00;101838.30;4961309;58;1140650;-79
2024/01/21 13:24:41;;;;;;;34.80;11.73;;;;;;;1.92;100.00;101832.17;4984996;56;1140601;-78
2024/01/21 13:35:10;;;;;;;27.65;12.07;;;;;;;1.95;100.00;101798.20;5015410;56;1140542;-80
2024/01/21 13:40:19;;;;;;;28.30;10.97;;;;;;;1.95;100.00;101786.02;4983376;56;1140682;-82
2024/01/21 13:45:24;;;;;;;24.13;9.57;;;;;;;1.97;100.00;101806.86;4970211;57;1140688;-81
2024/01/21 13:50:31;;;;;;;25.27;11.50;;;;;;;1.96;100.00;101812.52;4975678;57;1138567;-76
2024/01/21 13:55:40;;;;;;;21.37;10.13;;;;;;;1.98;100.00;101798.14;4938916;58;1140787;-78
2024/01/21 14:00:46;;;;;;;34.50;14.07;;;;;;;1.99;100.00;101798.52;4847144;58;1140995;-79
2024/01/21 14:05:52;;;;;;;32.20;14.57;;;;;;;1.99;100.00;101781.11;4875556;59;1141237;-76
2024/01/21 14:10:57;;;;;;;32.13;13.50;;;;;;;1.98;100.00;101761.61;4878346;58;1140565;-79
2024/01/21 14:16:03;;;;;;;43.70;13.97;;;;;;;1.99;100.00;101722.86;4923101;58;1140607;-79
2024/01/21 14:21:09;;;;;;;68.27;20.37;;;;;;;1.99;100.00;101723.72;4925484;57;1141035;-78
2024/01/21 14:26:17;;;;;;;58.10;20.40;;;;;;;1.99;100.00;101713.28;4963016;57;1140843;-79
2024/01/21 14:31:25;;;;;;;57.70;17.40;;;;;;;2.00;100.00;101705.87;4951624;57;1141130;-77
2024/01/21 14:36:31;;;;;;;70.23;24.43;;;;;;;1.99;100.00;101688.94;4951653;57;1140972;-78
2024/01/21 14:41:37;;;;;;;43.80;14.53;;;;;;;2.00;100.00;101694.13;4961770;57;1140949;-76
2024/01/21 14:46:44;;;;;;;30.30;11.57;;;;;;;2.00;100.00;101682.83;4926735;57;1141202;-78
2024/01/21 14:51:50;;;;;;;37.97;13.10;;;;;;;2.00;100.00;101669.78;4911756;58;1140700;-77
2024/01/21 14:56:55;;;;;;;26.90;10.77;;;;;;;1.99;100.00;101655.03;4860068;59;1141034;-79
2024/01/21 15:02:02;;;;;;;24.83;9.60;;;;;;;1.98;100.00;101656.81;4847765;59;1140578;-78
2024/01/21 15:07:08;;;;;;;170.53;46.63;;;;;;;1.99;100.00;101652.41;4857875;58;1138660;-79
2024/01/21 15:12:14;;;;;;;34.93;15.00;;;;;;;2.00;100.00;101664.56;4942418;58;1142820;-80
2024/01/21 15:17:19;;;;;;;54.63;21.80;;;;;;;2.01;100.00;101664.98;4923894;58;1140713;-79
2024/01/21 15:22:25;;;;;;;54.03;15.23;;;;;;;2.01;100.00;101677.58;4925099;57;1141215;-79
2024/01/21 15:27:31;;;;;;;53.07;20.90;;;;;;;2.00;100.00;101669.78;4974423;55;1140716;-79
2024/01/21 15:32:36;;;;;;;25.23;11.80;;;;;;;2.01;100.00;101664.53;4956333;57;1140682;-78
2024/01/21 15:37:42;;;;;;;90.10;29.93;;;;;;;2.02;100.00;101664.09;4952650;57;1140841;-79
2024/01/21 15:42:48;;;;;;;54.70;15.93;;;;;;;2.01;100.00;101659.31;4939864;57;1143588;-77
2024/01/21 15:47:53;;;;;;;21.73;9.07;;;;;;;2.00;100.00;101651.08;4937125;57;1140634;-78
2024/01/21 15:52:59;;;;;;;25.10;9.13;;;;;;;1.99;100.00;101620.66;4850482;59;1138724;-77
2024/01/21 15:58:05;;;;;;;42.20;11.97;;;;;;;1.99;100.00;101611.53;4848538;58;1138575;-80
2024/01/21 16:03:11;;;;;;;32.08;11.90;;;;;;;1.98;100.00;101610.30;4879676;57;1140773;-78
2024/01/21 16:08:17;;;;;;;33.73;16.37;;;;;;;1.97;100.00;101605.97;4923952;58;1141249;-76
2024/01/21 16:13:22;;;;;;;27.70;9.60;;;;;;;1.97;100.00;101600.75;4922718;58;1141368;-79
2024/01/21 16:18:28;;;;;;;26.50;10.37;;;;;;;1.97;100.00;101574.22;4942648;58;1138900;-80
2024/01/21 16:23:34;;;;;;;43.47;13.53;;;;;;;1.99;100.00;101602.40;4926882;57;1140995;-76
2024/01/21 16:28:39;;;;;;;62.50;23.67;;;;;;;1.99;100.00;101627.63;4951719;57;1140663;-76
2024/01/21 16:33:46;;;;;;;37.67;13.53;;;;;;;1.97;100.00;101597.70;4952788;57;1140828;-79
2024/01/21 16:38:52;;;;;;;38.80;12.47;;;;;;;1.97;100.00;101594.23;4915171;57;1141054;-79
2024/01/21 16:44:01;;;;;;;28.70;11.20;;;;;;;1.93;100.00;101573.88;4857717;57;1141160;-79
2024/01/21 16:49:05;;;;;;;38.43;12.07;;;;;;;1.89;100.00;101567.45;4842751;58;1140821;-80
2024/01/21 16:54:12;;;;;;;58.87;16.97;;;;;;;1.89;100.00;101594.84;4869590;58;1140871;-80
2024/01/21 16:59:18;;;;;;;107.87;40.73;;;;;;;1.85;100.00;101596.66;4845156;58;1140633;-77
2024/01/21 17:04:23;;;;;;;32.53;13.13;;;;;;;1.85;100.00;101590.14;4886268;58;1142762;-82
2024/01/21 17:09:29;;;;;;;39.00;16.00;;;;;;;1.85;100.00;101583.63;4901248;57;1141047;-77
2024/01/21 17:14:34;;;;;;;29.53;12.33;;;;;;;1.83;100.00;101576.31;4881912;57;1140905;-76
2024/01/21 17:19:40;;;;;;;36.67;10.63;;;;;;;1.80;100.00;101573.77;4872426;58;1141134;-79
2024/01/21 17:24:46;;;;;;;25.43;9.93;;;;;;;1.76;100.00;101576.90;4920571;57;1141212;-78
2024/01/21 17:29:51;;;;;;;31.13;11.23;;;;;;;1.74;100.00;101579.13;4946673;57;1138866;-78
2024/01/21 17:34:57;;;;;;;18.43;6.83;;;;;;;1.72;100.00;101571.34;4923653;57;1141185;-81
2024/01/21 17:40:06;;;;;;;223.57;60.20;;;;;;;1.68;100.00;101559.26;4923310;57;1138926;-82
2024/01/21 17:45:11;;;;;;;52.50;14.80;;;;;;;1.69;100.00;101553.59;4858317;58;1143018;-77
2024/01/21 17:50:17;;;;;;;60.10;17.33;;;;;;;1.67;100.00;101544.54;4854230;58;1140862;-79
2024/01/21 17:55:22;;;;;;;36.73;13.30;;;;;;;1.65;100.00;101531.98;4853041;57;1140998;-78
2024/01/21 18:00:28;;;;;;;140.83;48.30;;;;;;;1.62;100.00;101524.23;4945338;57;1140973;-77
2024/01/21 18:05:33;;;;;;;33.80;11.33;;;;;;;1.62;100.00;101519.02;4928276;57;1142613;-77
2024/01/21 18:10:39;;;;;;;46.07;14.07;;;;;;;1.61;100.00;101496.89;4923522;58;1141588;-77
2024/01/21 18:15:45;;;;;;;140.12;31.87;;;;;;;1.56;100.00;101481.34;4925097;57;1140887;-78
2024/01/21 18:20:50;;;;;;;202.43;42.17;;;;;;;1.53;100.00;101485.81;4944480;58;1142936;-78
2024/01/21 18:25:56;;;;;;;226.57;43.13;;;;;;;1.50;100.00;101488.03;4947455;57;1142962;-77
2024/01/21 18:31:02;;;;;;;157.62;32.63;;;;;;;1.50;100.00;101493.70;4940449;57;1142916;-76
2024/01/21 18:36:08;;;;;;;130.57;33.00;;;;;;;1.49;100.00;101512.84;4938504;57;1143115;-76
2024/01/21 18:41:14;;;;;;;160.10;36.87;;;;;;;1.50;100.00;101508.03;4869453;57;1142877;-77
2024/01/21 18:46:19;;;;;;;93.70;21.13;;;;;;;1.47;100.00;101515.92;4880086;58;1142917;-76
2024/01/21 18:51:25;;;;;;;138.83;31.37;;;;;;;1.41;100.00;101489.10;4864900;58;1141129;-76
2024/01/21 18:56:31;;;;;;;178.37;42.83;;;;;;;1.38;100.00;101494.83;4923037;57;1142775;-76
2024/01/21 19:01:36;;;;;;;103.85;32.25;;;;;;;1.31;100.00;101471.98;4893292;58;1143021;-76
2024/01/21 19:06:42;;;;;;;118.00;46.13;;;;;;;1.24;100.00;101473.02;4841951;58;1143337;-76
2024/01/21 19:11:48;;;;;;;85.03;25.48;;;;;;;1.20;100.00;101479.21;4863892;59;1142847;-77
2024/01/21 19:16:53;;;;;;;75.20;23.47;;;;;;;1.15;100.00;101491.48;4830163;58;1141901;-76
2024/01/21 19:21:59;;;;;;;80.12;19.45;;;;;;;1.12;100.00;101486.34;4932348;56;1141114;-76
2024/01/21 19:27:05;;;;;;;124.15;35.80;;;;;;;1.12;100.00;101488.08;4870088;58;1140898;-75
2024/01/21 19:32:11;;;;;;;163.77;46.45;;;;;;;1.12;100.00;101477.22;4815023;58;1143964;-74
2024/01/21 19:37:16;;;;;;;131.83;41.00;;;;;;;1.13;100.00;101465.91;4924075;57;1143430;-75
2024/01/21 19:42:22;;;;;;;98.80;33.47;;;;;;;1.13;100.00;101463.75;4951593;56;1142909;-75
2024/01/21 19:47:28;;;;;;;32.43;13.97;;;;;;;1.15;100.00;101447.19;4816638;58;1140906;-75
2024/01/21 19:52:34;;;;;;;35.60;13.83;;;;;;;1.15;100.00;101439.82;4742350;59;1141011;-75
2024/01/21 19:57:39;;;;;;;173.23;59.43;;;;;;;1.16;100.00;101426.76;4897097;57;1140625;-75
2024/01/21 20:02:45;;;;;;;32.87;12.13;;;;;;;1.15;100.00;101426.80;4821897;58;1143094;-77
2024/01/21 20:07:51;;;;;;;37.33;15.28;;;;;;;1.14;100.00;101435.05;4854795;58;1140808;-77
2024/01/21 20:12:56;;;;;;;30.70;10.03;;;;;;;1.13;100.00;101426.83;4889969;57;1140787;-77
2024/01/21 20:18:02;;;;;;;26.20;9.17;;;;;;;1.16;100.00;101437.63;4888719;57;1140952;-77
2024/01/21 20:23:08;;;;;;;22.50;8.53;;;;;;;1.16;100.00;101426.76;4949379;57;1139634;-77
2024/01/21 20:28:15;;;;;;;19.73;8.50;;;;;;;1.20;100.00;101420.59;4940351;57;1138848;-78
2024/01/21 20:33:20;;;;;;;32.07;10.13;;;;;;;1.26;100.00;101410.00;4966187;57;1139193;-76
2024/01/21 20:38:27;;;;;;;23.73;8.70;;;;;;;1.32;100.00;101418.97;4921799;57;1140949;-77
2024/01/21 20:43:32;;;;;;;17.27;6.90;;;;;;;1.32;100.00;101408.55;4951100;58;1138706;-79
2024/01/21 20:48:39;;;;;;;19.17;6.57;;;;;;;1.32;100.00;101406.39;4960522;57;1138910;-77
2024/01/21 20:53:48;;;;;;;20.50;7.63;;;;;;;1.29;100.00;101407.31;4954332;58;1138589;-77
2024/01/21 20:58:52;;;;;;;21.48;8.15;;;;;;;1.29;100.00;101405.16;4949686;58;1138974;-76
2024/01/21 21:03:58;;;;;;;20.65;8.25;;;;;;;1.29;100.00;101404.72;4950803;58;1138432;-78
2024/01/21 21:09:04;;;;;;;21.57;6.70;;;;;;;1.33;100.00;101404.20;4940510;58;1138652;-77
2024/01/21 21:14:09;;;;;;;17.33;7.43;;;;;;;1.35;100.00;101395.89;4929167;58;1138620;-74
2024/01/21 21:19:15;;;;;;;20.03;8.20;;;;;;;1.38;100.00;101386.22;4981319;58;1139264;-77
2024/01/21 21:24:21;;;;;;;17.93;6.87;;;;;;;1.45;100.00;101370.44;4911365;57;1138854;-79
2024/01/21 21:29:26;;;;;;;16.13;6.97;;;;;;;1.51;100.00;101371.59;4939011;57;1138927;-79
2024/01/21 21:34:32;;;;;;;30.30;7.50;;;;;;;1.55;100.00;101375.36;4969786;58;1139027;-77
2024/01/21 21:39:37;;;;;;;18.33;8.20;;;;;;;1.61;100.00;101359.56;4956491;58;1138513;-78
2024/01/21 21:44:44;;;;;;;19.50;6.50;;;;;;;1.65;100.00;101347.30;4915328;57;1138508;-77
2024/01/21 21:49:49;;;;;;;13.33;5.60;;;;;;;1.65;100.00;101344.25;4947207;58;1139042;-77
2024/01/21 21:54:55;;;;;;;15.33;6.13;;;;;;;1.68;100.00;101333.70;4970312;57;1139183;-77
2024/01/21 22:00:01;;;;;;;18.05;7.25;;;;;;;1.73;100.00;101328.37;4947241;58;1139055;-76
2024/01/21 22:05:08;;;;;;;20.27;7.15;;;;;;;1.78;100.00;101336.08;4928138;57;1138734;-76
2024/01/21 22:10:14;;;;;;;20.00;7.03;;;;;;;1.77;100.00;101337.83;4910940;57;1138691;-75
2024/01/21 22:15:20;;;;;;;14.63;6.90;;;;;;;1.80;100.00;101337.75;4938247;57;1138750;-77
2024/01/21 22:20:25;;;;;;;18.93;7.77;;;;;;;1.82;100.00;101341.62;4916781;56;1138683;-75
2024/01/21 22:25:31;;;;;;;19.13;6.70;;;;;;;1.83;100.00;101350.70;4944409;57;1138868;-72
2024/01/21 22:30:37;;;;;;;15.37;6.27;;;;;;;1.83;100.00;101350.70;4926665;57;1138795;-75
2024/01/21 22:35:42;;;;;;;26.40;7.63;;;;;;;1.85;100.00;101340.20;4844210;59;1138782;-77
2024/01/21 22:40:48;;;;;;;17.73;7.15;;;;;;;1.87;100.00;101339.27;4971902;57;1138790;-75
2024/01/21 22:45:54;;;;;;;17.87;6.13;;;;;;;1.90;100.00;101329.20;4924980;58;1153392;-74